Time;durP1;ratioP1;P1;durP2;ratioP2;P2;SDS_P1;SDS_P2;PMS_P1;PMS_P2;Temp;Humidity;BMP_temperature;BMP_pressure;BME280_temperature;BME280_humidity;BME280_pressure;Samples;Min_cycle;Max_cycle;Signal;HPM_P1;HPM_P2
2022/10/14 00:02:21;;;;;;;14.03;11.33;;;;;;;;;;5044286;28;20669;-79
2022/10/14 00:04:47;;;;;;;16.37;12.47;;;;;;;;;;5060863;28;20243;-79
2022/10/14 00:07:13;;;;;;;13.00;11.60;;;;;;;;;;5042232;28;22093;-79
2022/10/14 00:09:41;;;;;;;13.33;10.87;;;;;;;;;;5046833;28;20212;-79
2022/10/14 00:12:07;;;;;;;16.20;11.07;;;;;;;;;;5044724;28;20229;-79
2022/10/14 00:14:33;;;;;;;16.50;11.47;;;;;;;;;;5049635;28;20202;-79
2022/10/14 00:16:59;;;;;;;14.57;11.87;;;;;;;;;;5036655;28;20226;-79
2022/10/14 00:19:25;;;;;;;14.43;12.40;;;;;;;;;;5048970;28;20182;-79
2022/10/14 00:21:52;;;;;;;12.63;11.00;;;;;;;;;;5037468;28;20188;-79
2022/10/14 00:24:18;;;;;;;12.63;11.33;;;;;;;;;;5042119;28;20209;-78
2022/10/14 00:26:45;;;;;;;17.93;11.50;;;;;;;;;;5044755;28;20620;-79
2022/10/14 00:29:13;;;;;;;16.83;11.90;;;;;;;;;;5043947;28;20224;-79
2022/10/14 00:31:40;;;;;;;14.47;11.90;;;;;;;;;;5033984;28;20269;-79
2022/10/14 00:34:06;;;;;;;18.37;13.97;;;;;;;;;;5040188;28;20297;-79
2022/10/14 00:36:33;;;;;;;15.80;12.33;;;;;;;;;;5043768;28;20189;-79
2022/10/14 00:38:59;;;;;;;16.87;12.83;;;;;;;;;;5039808;28;20234;-79
2022/10/14 00:41:29;;;;;;;15.60;12.20;;;;;;;;;;5036386;28;20766;-80
2022/10/14 00:44:04;;;;;;;15.30;12.10;;;;;;;;;;5043210;28;20213;-79
2022/10/14 00:46:32;;;;;;;16.30;13.37;;;;;;;;;;5045160;28;21154;-79
2022/10/14 00:49:03;;;;;;;15.93;12.00;;;;;;;;;;5041279;28;20243;-79
2022/10/14 00:51:29;;;;;;;13.90;11.57;;;;;;;;;;5054190;28;20214;-79
2022/10/14 00:53:55;;;;;;;17.60;12.77;;;;;;;;;;5023051;28;20206;-79
2022/10/14 00:56:24;;;;;;;13.57;10.87;;;;;;;;;;5045796;28;20216;-79
2022/10/14 00:58:50;;;;;;;13.37;11.63;;;;;;;;;;5043108;28;20193;-79
2022/10/14 01:01:16;;;;;;;20.87;13.73;;;;;;;;;;5027149;28;20515;-79
2022/10/14 01:03:43;;;;;;;18.37;12.60;;;;;;;;;;5045683;28;20217;-79
2022/10/14 01:06:15;;;;;;;16.87;12.23;;;;;;;;;;5043189;28;20187;-79
2022/10/14 01:08:45;;;;;;;16.23;11.60;;;;;;;;;;5045501;28;20185;-79
2022/10/14 01:11:29;;;;;;;17.90;12.23;;;;;;;;;;5040132;28;20182;-79
2022/10/14 01:14:12;;;;;;;18.17;12.60;;;;;;;;;;5042404;28;20208;-79
2022/10/14 01:16:49;;;;;;;17.87;13.13;;;;;;;;;;5045856;28;20181;-79
2022/10/14 01:19:34;;;;;;;12.17;10.37;;;;;;;;;;5042705;28;20571;-79
2022/10/14 01:22:06;;;;;;;15.70;10.63;;;;;;;;;;5045236;28;20201;-79
2022/10/14 01:24:42;;;;;;;15.33;11.40;;;;;;;;;;5041095;28;20292;-79
2022/10/14 01:27:14;;;;;;;16.03;10.73;;;;;;;;;;5036872;28;20558;-79
2022/10/14 01:29:53;;;;;;;12.53;10.43;;;;;;;;;;5041776;28;20610;-79
2022/10/14 01:32:23;;;;;;;12.50;11.23;;;;;;;;;;5037387;28;20258;-79
2022/10/14 01:34:53;;;;;;;13.90;11.23;;;;;;;;;;5032318;28;20202;-80
2022/10/14 01:37:23;;;;;;;11.70;10.37;;;;;;;;;;5042100;28;20191;-79
2022/10/14 01:39:56;;;;;;;13.37;10.10;;;;;;;;;;5046415;28;20182;-79
2022/10/14 01:42:25;;;;;;;16.77;10.90;;;;;;;;;;5047558;28;20210;-79
2022/10/14 01:45:00;;;;;;;12.17;10.83;;;;;;;;;;5043163;28;20631;-79
2022/10/14 01:47:29;;;;;;;12.80;9.90;;;;;;;;;;5053517;28;20559;-79
2022/10/14 01:49:58;;;;;;;14.77;10.33;;;;;;;;;;5047343;28;20231;-80
2022/10/14 01:52:29;;;;;;;14.70;11.03;;;;;;;;;;5031690;28;20555;-80
2022/10/14 01:54:59;;;;;;;11.20;9.97;;;;;;;;;;5043638;28;20220;-80
2022/10/14 01:57:31;;;;;;;12.60;9.60;;;;;;;;;;5044868;28;20491;-80
2022/10/14 01:59:58;;;;;;;11.50;9.90;;;;;;;;;;5047281;28;20189;-79
2022/10/14 02:02:24;;;;;;;14.33;10.73;;;;;;;;;;5048400;28;20213;-80
2022/10/14 02:04:51;;;;;;;14.07;9.80;;;;;;;;;;5047497;28;20634;-80
2022/10/14 02:07:25;;;;;;;14.33;10.63;;;;;;;;;;5045664;28;20186;-79
2022/10/14 02:09:58;;;;;;;14.80;9.60;;;;;;;;;;5043750;28;20669;-79
2022/10/14 02:12:27;;;;;;;14.27;9.90;;;;;;;;;;5036205;28;20267;-79
2022/10/14 02:15:02;;;;;;;12.43;9.43;;;;;;;;;;5048315;28;20186;-80
2022/10/14 02:17:39;;;;;;;16.10;9.90;;;;;;;;;;5037767;28;20186;-80
2022/10/14 02:20:05;;;;;;;15.53;10.80;;;;;;;;;;5049144;28;20196;-80
2022/10/14 02:22:32;;;;;;;14.17;10.70;;;;;;;;;;5042120;28;20215;-80
2022/10/14 02:25:26;;;;;;;12.47;9.43;;;;;;;;;;5036850;28;20187;-80
2022/10/14 02:27:53;;;;;;;14.73;10.50;;;;;;;;;;5031746;28;20187;-80
2022/10/14 02:30:20;;;;;;;13.23;9.97;;;;;;;;;;5052083;28;20624;-79
2022/10/14 02:32:55;;;;;;;14.10;10.30;;;;;;;;;;5053028;28;20829;-79
2022/10/14 02:35:23;;;;;;;14.87;10.57;;;;;;;;;;5052943;28;20198;-80
2022/10/14 02:37:50;;;;;;;16.63;11.33;;;;;;;;;;5040539;28;20213;-80
2022/10/14 02:40:23;;;;;;;15.27;11.37;;;;;;;;;;5053132;28;20597;-79
2022/10/14 02:42:49;;;;;;;14.07;10.23;;;;;;;;;;5051643;28;20598;-79
2022/10/14 02:45:15;;;;;;;15.00;10.63;;;;;;;;;;5045945;28;20189;-79
2022/10/14 02:47:44;;;;;;;12.57;10.80;;;;;;;;;;5028218;28;20190;-79
2022/10/14 02:50:13;;;;;;;14.90;11.07;;;;;;;;;;5050479;28;20213;-79
2022/10/14 02:52:39;;;;;;;15.93;11.60;;;;;;;;;;5048807;28;20288;-79
2022/10/14 02:55:05;;;;;;;13.47;11.23;;;;;;;;;;5046108;28;20214;-79
2022/10/14 02:57:31;;;;;;;15.27;11.13;;;;;;;;;;5042317;28;20190;-80
2022/10/14 02:59:57;;;;;;;12.87;10.80;;;;;;;;;;5029372;28;20184;-79
2022/10/14 03:02:24;;;;;;;14.90;10.87;;;;;;;;;;5033763;28;20202;-80
2022/10/14 03:04:50;;;;;;;14.13;10.77;;;;;;;;;;5051798;28;20909;-80
2022/10/14 03:07:16;;;;;;;15.53;12.27;;;;;;;;;;5043490;28;20188;-79
2022/10/14 03:09:47;;;;;;;13.73;10.90;;;;;;;;;;5049379;28;20692;-79
2022/10/14 03:12:13;;;;;;;14.27;11.53;;;;;;;;;;5051645;28;20209;-79
2022/10/14 03:14:40;;;;;;;13.93;11.53;;;;;;;;;;5050016;28;20705;-80
2022/10/14 03:17:09;;;;;;;16.57;12.40;;;;;;;;;;5054925;28;20685;-79
2022/10/14 03:19:35;;;;;;;18.57;13.60;;;;;;;;;;5048064;28;20246;-79
2022/10/14 03:22:01;;;;;;;16.67;12.10;;;;;;;;;;5042277;28;20540;-79
2022/10/14 03:24:28;;;;;;;14.43;11.33;;;;;;;;;;5029946;28;20214;-79
2022/10/14 03:27:16;;;;;;;15.03;12.33;;;;;;;;;;5037759;28;20174;-79
2022/10/14 03:29:46;;;;;;;14.93;10.90;;;;;;;;;;5042412;28;20275;-79
2022/10/14 03:32:18;;;;;;;14.37;11.07;;;;;;;;;;5042400;28;20190;-80
2022/10/14 03:35:17;;;;;;;13.50;11.57;;;;;;;;;;5021565;28;20197;-79
2022/10/14 03:37:46;;;;;;;17.40;11.90;;;;;;;;;;5033617;28;20185;-80
2022/10/14 03:40:15;;;;;;;13.67;11.23;;;;;;;;;;5046527;28;20179;-80
2022/10/14 03:42:41;;;;;;;15.50;11.87;;;;;;;;;;5053231;28;20229;-80
2022/10/14 03:45:08;;;;;;;15.17;11.60;;;;;;;;;;5044860;28;20625;-79
2022/10/14 03:47:36;;;;;;;12.87;11.20;;;;;;;;;;5036581;28;20546;-79
2022/10/14 03:50:03;;;;;;;11.37;10.17;;;;;;;;;;5034341;28;20332;-79
2022/10/14 03:52:41;;;;;;;14.67;11.23;;;;;;;;;;5026618;28;20234;-80
2022/10/14 03:55:17;;;;;;;14.50;10.57;;;;;;;;;;5049846;28;20262;-79
2022/10/14 03:57:45;;;;;;;15.87;11.50;;;;;;;;;;5050345;28;20285;-80
2022/10/14 04:00:12;;;;;;;13.93;11.07;;;;;;;;;;5030832;28;20256;-80
2022/10/14 04:02:42;;;;;;;16.27;12.70;;;;;;;;;;5047075;28;20205;-80
2022/10/14 04:05:32;;;;;;;14.97;11.77;;;;;;;;;;5032057;28;20197;-80
2022/10/14 04:08:03;;;;;;;13.77;11.10;;;;;;;;;;5037268;28;20530;-79
2022/10/14 04:10:30;;;;;;;17.38;13.80;;;;;;;;;;5013902;28;20439;-80
2022/10/14 04:12:57;;;;;;;14.73;11.50;;;;;;;;;;5044727;28;20205;-80
2022/10/14 04:15:30;;;;;;;13.30;11.17;;;;;;;;;;5044872;28;20272;-80
2022/10/14 04:18:26;;;;;;;13.77;10.60;;;;;;;;;;5031061;28;20618;-80
2022/10/14 04:20:59;;;;;;;12.43;10.17;;;;;;;;;;5047662;28;20186;-79
2022/10/14 04:23:25;;;;;;;12.57;11.10;;;;;;;;;;5039238;28;20248;-79
2022/10/14 04:25:56;;;;;;;14.20;11.70;;;;;;;;;;5040071;28;20190;-80
2022/10/14 04:28:23;;;;;;;12.50;10.50;;;;;;;;;;5031473;28;20182;-80
2022/10/14 04:30:58;;;;;;;16.27;10.43;;;;;;;;;;5047793;28;20185;-80
2022/10/14 04:33:30;;;;;;;13.90;10.40;;;;;;;;;;5047986;28;20202;-79
2022/10/14 04:36:04;;;;;;;14.20;10.10;;;;;;;;;;5047610;28;20185;-81
2022/10/14 04:38:35;;;;;;;11.90;10.00;;;;;;;;;;5046737;28;20265;-77
2022/10/14 04:41:05;;;;;;;10.97;9.80;;;;;;;;;;5043607;28;20289;-81
2022/10/14 04:43:33;;;;;;;13.93;10.27;;;;;;;;;;5031304;28;20213;-81
2022/10/14 04:46:12;;;;;;;12.27;9.87;;;;;;;;;;5030914;28;20194;-79
2022/10/14 04:48:38;;;;;;;15.93;9.73;;;;;;;;;;5047869;28;20620;-78
2022/10/14 04:51:06;;;;;;;10.40;9.40;;;;;;;;;;5047269;28;20944;-79
2022/10/14 04:53:59;;;;;;;13.50;10.97;;;;;;;;;;5050574;28;20218;-80
2022/10/14 04:56:44;;;;;;;12.47;10.00;;;;;;;;;;5036848;28;20178;-78
2022/10/14 04:59:12;;;;;;;14.40;10.77;;;;;;;;;;5028910;28;20218;-78
2022/10/14 05:01:53;;;;;;;16.03;12.60;;;;;;;;;;5040364;28;20197;-77
2022/10/14 05:04:20;;;;;;;16.13;12.03;;;;;;;;;;5046847;28;20693;-77
2022/10/14 05:06:49;;;;;;;17.77;12.27;;;;;;;;;;5042883;28;20204;-77
2022/10/14 05:09:17;;;;;;;17.58;14.77;;;;;;;;;;5044882;28;20803;-77
2022/10/14 05:11:44;;;;;;;14.67;11.90;;;;;;;;;;5021714;28;20336;-78
2022/10/14 05:14:13;;;;;;;16.97;12.57;;;;;;;;;;5044031;28;20185;-77
2022/10/14 05:16:42;;;;;;;14.07;11.47;;;;;;;;;;5042050;28;20194;-78
2022/10/14 05:19:09;;;;;;;15.03;11.53;;;;;;;;;;5035725;28;20265;-78
2022/10/14 05:21:41;;;;;;;18.58;14.95;;;;;;;;;;5027617;28;21141;-78
2022/10/14 05:24:12;;;;;;;16.43;12.73;;;;;;;;;;5028281;28;20198;-78
2022/10/14 05:26:39;;;;;;;13.33;10.80;;;;;;;;;;5046553;28;20641;-78
2022/10/14 05:29:12;;;;;;;14.97;11.93;;;;;;;;;;5037049;28;20244;-79
2022/10/14 05:31:39;;;;;;;14.77;11.57;;;;;;;;;;5040227;28;20188;-78
2022/10/14 05:34:25;;;;;;;14.87;11.47;;;;;;;;;;5039994;28;20194;-78
2022/10/14 05:36:52;;;;;;;17.53;11.90;;;;;;;;;;5037903;28;20186;-78
2022/10/14 05:39:20;;;;;;;16.73;12.83;;;;;;;;;;5038824;28;20221;-78
2022/10/14 05:41:46;;;;;;;16.30;12.53;;;;;;;;;;5046606;28;20196;-78
2022/10/14 05:44:17;;;;;;;18.17;12.40;;;;;;;;;;5042686;28;20218;-78
2022/10/14 05:46:44;;;;;;;16.40;12.33;;;;;;;;;;5040614;28;20186;-78
2022/10/14 05:49:11;;;;;;;16.20;12.23;;;;;;;;;;5046339;28;20175;-78
2022/10/14 05:51:38;;;;;;;16.33;12.63;;;;;;;;;;5042325;28;20183;-78
2022/10/14 05:54:11;;;;;;;16.63;13.43;;;;;;;;;;5055630;28;20214;-79
2022/10/14 05:56:40;;;;;;;17.23;12.70;;;;;;;;;;5043744;28;20277;-78
2022/10/14 05:59:09;;;;;;;18.97;12.90;;;;;;;;;;5043870;28;20738;-79
2022/10/14 06:01:37;;;;;;;18.60;12.80;;;;;;;;;;5040304;28;20205;-78
2022/10/14 06:04:04;;;;;;;15.90;13.07;;;;;;;;;;5042893;28;20209;-78
2022/10/14 06:06:30;;;;;;;16.47;12.03;;;;;;;;;;5041971;28;20214;-78
2022/10/14 06:08:56;;;;;;;14.97;12.17;;;;;;;;;;5046486;28;20174;-78
2022/10/14 06:11:22;;;;;;;18.77;13.17;;;;;;;;;;5049273;28;20764;-78
2022/10/14 06:13:49;;;;;;;13.77;11.37;;;;;;;;;;5049407;28;20220;-78
2022/10/14 06:16:16;;;;;;;15.27;12.30;;;;;;;;;;5046692;28;20204;-79
2022/10/14 06:18:42;;;;;;;16.50;12.10;;;;;;;;;;5043969;28;20672;-78
2022/10/14 06:21:11;;;;;;;14.93;11.60;;;;;;;;;;5045185;28;20295;-78
2022/10/14 06:23:37;;;;;;;15.17;12.03;;;;;;;;;;5045007;28;20209;-78
2022/10/14 06:26:05;;;;;;;15.97;12.27;;;;;;;;;;5050668;28;20563;-79
2022/10/14 06:28:31;;;;;;;15.00;12.17;;;;;;;;;;5050381;28;20269;-78
2022/10/14 06:30:57;;;;;;;18.63;13.07;;;;;;;;;;5048894;28;20618;-78
2022/10/14 06:33:23;;;;;;;15.37;11.73;;;;;;;;;;5042958;28;20201;-78
2022/10/14 06:35:49;;;;;;;14.67;11.33;;;;;;;;;;5046928;28;20190;-78
2022/10/14 06:38:16;;;;;;;14.53;11.87;;;;;;;;;;5048542;28;20239;-78
2022/10/14 06:40:42;;;;;;;15.83;11.93;;;;;;;;;;5043667;28;20174;-78
2022/10/14 06:43:08;;;;;;;13.10;10.63;;;;;;;;;;5048930;28;20280;-78
2022/10/14 06:45:34;;;;;;;13.97;9.97;;;;;;;;;;5032373;28;20642;-78
2022/10/14 06:48:00;;;;;;;16.27;11.37;;;;;;;;;;5042029;28;20735;-78
2022/10/14 06:50:27;;;;;;;12.73;10.40;;;;;;;;;;5047847;28;20185;-78
2022/10/14 06:52:53;;;;;;;13.37;10.40;;;;;;;;;;5048710;28;20256;-78
2022/10/14 06:55:19;;;;;;;17.20;11.53;;;;;;;;;;5039023;28;20186;-78
2022/10/14 06:57:45;;;;;;;16.40;11.60;;;;;;;;;;5050176;28;20277;-79
2022/10/14 07:00:12;;;;;;;15.97;14.27;;;;;;;;;;5049041;28;20171;-78
2022/10/14 07:02:38;;;;;;;16.80;12.47;;;;;;;;;;5043772;28;20210;-78
2022/10/14 07:05:05;;;;;;;17.60;14.97;;;;;;;;;;5040706;28;20201;-78
2022/10/14 07:07:31;;;;;;;17.97;15.37;;;;;;;;;;5039570;28;20178;-78
2022/10/14 07:09:57;;;;;;;20.87;14.37;;;;;;;;;;5035077;28;20213;-78
2022/10/14 07:12:24;;;;;;;18.17;13.73;;;;;;;;;;5039659;28;20205;-78
2022/10/14 07:14:50;;;;;;;19.13;15.63;;;;;;;;;;5042419;28;20200;-79
2022/10/14 07:17:17;;;;;;;20.97;16.27;;;;;;;;;;5045330;28;20254;-78
2022/10/14 07:19:43;;;;;;;19.60;15.47;;;;;;;;;;5031532;28;20650;-78
2022/10/14 07:22:09;;;;;;;17.10;15.40;;;;;;;;;;5046391;28;20256;-78
2022/10/14 07:24:35;;;;;;;15.90;13.23;;;;;;;;;;5041888;28;20197;-78
2022/10/14 07:27:01;;;;;;;14.13;12.33;;;;;;;;;;5038135;28;20182;-79
2022/10/14 07:29:28;;;;;;;15.83;11.77;;;;;;;;;;5043347;28;20263;-79
2022/10/14 07:31:54;;;;;;;14.13;10.80;;;;;;;;;;5048515;28;20181;-78
2022/10/14 07:34:20;;;;;;;11.90;9.87;;;;;;;;;;5047166;28;20555;-78
2022/10/14 07:36:46;;;;;;;11.27;10.03;;;;;;;;;;5043991;28;20182;-78
2022/10/14 07:39:13;;;;;;;12.13;9.17;;;;;;;;;;5045524;28;20196;-78
2022/10/14 07:41:39;;;;;;;12.47;9.63;;;;;;;;;;5041997;28;20185;-78
2022/10/14 07:44:07;;;;;;;10.03;9.03;;;;;;;;;;5031972;28;20710;-78
2022/10/14 07:46:35;;;;;;;10.13;8.27;;;;;;;;;;5043564;28;20182;-78
2022/10/14 07:49:06;;;;;;;10.07;8.10;;;;;;;;;;5036432;28;20265;-78
2022/10/14 07:51:33;;;;;;;15.17;12.83;;;;;;;;;;5047880;28;20185;-79
2022/10/14 07:54:00;;;;;;;13.97;12.57;;;;;;;;;;5045845;28;20197;-79
2022/10/14 07:56:27;;;;;;;29.40;26.70;;;;;;;;;;5045328;28;20197;-77
2022/10/14 07:58:54;;;;;;;23.83;19.00;;;;;;;;;;5044996;28;20208;-77
2022/10/14 08:01:20;;;;;;;15.83;14.23;;;;;;;;;;5038120;28;20195;-78
2022/10/14 08:03:48;;;;;;;13.20;11.80;;;;;;;;;;5042429;28;20215;-78
2022/10/14 08:06:14;;;;;;;15.30;12.57;;;;;;;;;;5052843;28;20920;-77
2022/10/14 08:08:41;;;;;;;13.50;11.93;;;;;;;;;;5039907;28;20293;-78
2022/10/14 08:11:12;;;;;;;14.80;12.43;;;;;;;;;;5047045;28;20239;-85
2022/10/14 08:13:39;;;;;;;14.40;11.73;;;;;;;;;;5030180;28;20209;-77
2022/10/14 08:16:18;;;;;;;16.93;13.77;;;;;;;;;;5042023;28;20650;-77
2022/10/14 08:18:45;;;;;;;16.40;12.33;;;;;;;;;;5043086;28;20663;-77
2022/10/14 08:21:11;;;;;;;25.90;22.97;;;;;;;;;;5046358;28;20182;-77
2022/10/14 08:23:37;;;;;;;20.57;17.60;;;;;;;;;;5037062;28;20276;-76
2022/10/14 08:26:04;;;;;;;17.57;15.77;;;;;;;;;;5039313;28;20174;-77
2022/10/14 08:28:30;;;;;;;26.70;23.50;;;;;;;;;;5046555;28;20209;-77
2022/10/14 08:30:56;;;;;;;19.30;14.97;;;;;;;;;;5048484;28;20590;-77
2022/10/14 08:33:22;;;;;;;20.93;15.97;;;;;;;;;;5047951;28;20193;-77
2022/10/14 08:35:48;;;;;;;17.13;14.13;;;;;;;;;;5031915;28;20673;-76
2022/10/14 08:38:14;;;;;;;18.77;14.23;;;;;;;;;;5029057;28;20175;-77
2022/10/14 08:41:01;;;;;;;13.13;11.47;;;;;;;;;;5039540;28;20228;-77
2022/10/14 08:43:32;;;;;;;17.30;13.87;;;;;;;;;;5004036;28;20226;-77
2022/10/14 08:46:05;;;;;;;17.07;12.27;;;;;;;;;;5062840;28;20196;-77
2022/10/14 08:48:34;;;;;;;13.93;11.37;;;;;;;;;;5044196;28;20178;-76
2022/10/14 08:51:04;;;;;;;16.50;13.60;;;;;;;;;;5041616;28;20174;-77
2022/10/14 08:53:39;;;;;;;17.90;11.93;;;;;;;;;;5046572;28;20224;-77
2022/10/14 08:56:07;;;;;;;17.60;13.97;;;;;;;;;;5040618;28;20181;-77
2022/10/14 08:58:41;;;;;;;14.47;12.97;;;;;;;;;;5046312;28;20285;-77
2022/10/14 09:01:30;;;;;;;10.50;8.47;;;;;;;;;;5043007;28;20281;-77
2022/10/14 09:03:58;;;;;;;10.20;8.30;;;;;;;;;;5016113;28;20643;-77
2022/10/14 09:06:26;;;;;;;11.53;10.33;;;;;;;;;;5030897;28;20180;-77
2022/10/14 09:08:54;;;;;;;15.47;14.03;;;;;;;;;;5032994;28;20189;-77
2022/10/14 09:11:21;;;;;;;15.33;10.80;;;;;;;;;;5041909;28;20174;-76
2022/10/14 09:13:52;;;;;;;16.83;15.13;;;;;;;;;;5038098;28;20712;-77
2022/10/14 09:16:19;;;;;;;22.10;19.93;;;;;;;;;;5036953;28;20190;-76
2022/10/14 09:18:56;;;;;;;23.83;21.40;;;;;;;;;;5033637;28;20181;-76
2022/10/14 09:21:34;;;;;;;19.77;17.70;;;;;;;;;;5029667;28;20209;-76
2022/10/14 09:24:02;;;;;;;42.57;28.77;;;;;;;;;;5035764;28;20216;-77
2022/10/14 09:26:35;;;;;;;25.07;18.97;;;;;;;;;;5045495;28;20213;-77
2022/10/14 09:29:01;;;;;;;40.33;36.20;;;;;;;;;;5042666;28;20174;-77
2022/10/14 09:31:28;;;;;;;28.97;26.07;;;;;;;;;;5034832;28;20177;-77
2022/10/14 09:33:54;;;;;;;15.63;13.20;;;;;;;;;;5033765;28;20213;-77
2022/10/14 09:36:22;;;;;;;10.30;8.53;;;;;;;;;;5032230;28;20186;-76
2022/10/14 09:38:51;;;;;;;10.53;7.17;;;;;;;;;;5044295;28;20189;-78
2022/10/14 09:41:19;;;;;;;8.50;6.03;;;;;;;;;;5048927;28;20277;-77
2022/10/14 09:44:04;;;;;;;8.60;7.00;;;;;;;;;;5042262;28;20220;-76
2022/10/14 09:46:31;;;;;;;8.13;5.57;;;;;;;;;;5046962;28;20182;-77
2022/10/14 09:48:57;;;;;;;7.03;6.10;;;;;;;;;;5044358;28;20213;-76
2022/10/14 09:51:25;;;;;;;7.70;5.10;;;;;;;;;;5049198;28;20263;-77
2022/10/14 09:53:53;;;;;;;6.40;5.17;;;;;;;;;;5048717;28;20194;-78
2022/10/14 09:56:30;;;;;;;7.60;4.90;;;;;;;;;;5039317;28;20174;-77
2022/10/14 09:58:57;;;;;;;8.13;4.67;;;;;;;;;;5047835;28;20220;-77
2022/10/14 10:01:48;;;;;;;8.07;4.80;;;;;;;;;;5042066;28;20205;-77
2022/10/14 10:04:34;;;;;;;6.80;4.83;;;;;;;;;;5048346;28;20252;-77
2022/10/14 10:07:02;;;;;;;7.60;4.70;;;;;;;;;;5050211;28;20193;-78
2022/10/14 10:09:28;;;;;;;7.90;5.07;;;;;;;;;;5050676;28;20771;-78
2022/10/14 10:11:54;;;;;;;7.00;4.37;;;;;;;;;;5054663;28;20190;-77
2022/10/14 10:14:22;;;;;;;5.13;4.17;;;;;;;;;;5039048;28;20194;-77
2022/10/14 10:17:11;;;;;;;5.83;4.70;;;;;;;;;;5049689;28;20189;-76
2022/10/14 10:19:37;;;;;;;7.67;4.70;;;;;;;;;;5042717;28;20557;-77
2022/10/14 10:22:19;;;;;;;6.53;4.50;;;;;;;;;;5037101;28;20206;-77
2022/10/14 10:24:45;;;;;;;6.63;4.20;;;;;;;;;;5036820;28;20202;-77
2022/10/14 10:27:19;;;;;;;8.43;4.73;;;;;;;;;;5036396;28;20395;-77
2022/10/14 10:29:45;;;;;;;6.10;4.40;;;;;;;;;;5043590;28;20213;-77
2022/10/14 10:32:16;;;;;;;6.60;4.83;;;;;;;;;;5043100;28;20205;-77
2022/10/14 10:34:55;;;;;;;9.83;4.70;;;;;;;;;;5044634;28;20185;-76
2022/10/14 10:37:23;;;;;;;7.10;5.10;;;;;;;;;;5042854;28;20189;-77
2022/10/14 10:39:49;;;;;;;8.00;5.00;;;;;;;;;;5048732;28;20196;-77
2022/10/14 10:42:20;;;;;;;7.17;4.00;;;;;;;;;;5048059;28;20217;-76
2022/10/14 10:44:57;;;;;;;8.97;4.43;;;;;;;;;;5039822;28;20209;-76
2022/10/14 10:47:30;;;;;;;5.07;3.67;;;;;;;;;;5035175;28;20181;-77
2022/10/14 10:50:11;;;;;;;6.07;3.80;;;;;;;;;;5048832;28;20810;-77
2022/10/14 10:52:43;;;;;;;7.27;4.77;;;;;;;;;;5041795;28;20210;-77
2022/10/14 10:55:12;;;;;;;5.10;4.13;;;;;;;;;;5046046;28;20588;-77
2022/10/14 10:57:48;;;;;;;6.83;4.30;;;;;;;;;;5039193;28;20701;-76
2022/10/14 11:00:19;;;;;;;5.40;4.17;;;;;;;;;;5047629;28;20189;-77
2022/10/14 11:02:46;;;;;;;19.70;14.93;;;;;;;;;;5029923;28;20206;-76
2022/10/14 11:05:13;;;;;;;8.17;6.07;;;;;;;;;;5030085;28;20809;-76
2022/10/14 11:14:06;;;;;;;6.07;4.63;;;;;;;;;;5045375;28;20202;-77
2022/10/14 11:16:45;;;;;;;5.97;4.20;;;;;;;;;;5029295;28;20697;-75
2022/10/14 11:19:24;;;;;;;7.63;4.33;;;;;;;;;;5040023;28;20624;-78
2022/10/14 11:21:50;;;;;;;5.63;4.50;;;;;;;;;;5038911;28;20197;-78
2022/10/14 11:24:26;;;;;;;6.07;4.30;;;;;;;;;;5040496;28;20301;-76
2022/10/14 11:26:52;;;;;;;5.27;4.13;;;;;;;;;;5045141;28;20184;-75
2022/10/14 11:29:45;;;;;;;7.77;4.13;;;;;;;;;;5048844;28;20186;-75
2022/10/14 11:32:14;;;;;;;7.30;4.70;;;;;;;;;;5048868;28;20758;-76
2022/10/14 11:34:57;;;;;;;5.57;4.10;;;;;;;;;;5049040;28;20194;-79
2022/10/14 11:37:49;;;;;;;11.37;8.03;;;;;;;;;;5043543;28;20740;-77
2022/10/14 11:40:20;;;;;;;10.73;6.90;;;;;;;;;;5009291;28;20243;-77
2022/10/14 11:42:55;;;;;;;23.53;16.23;;;;;;;;;;5046850;28;20201;-77
2022/10/14 11:45:38;;;;;;;13.33;10.17;;;;;;;;;;5046768;28;20274;-76
2022/10/14 11:48:13;;;;;;;9.93;6.70;;;;;;;;;;5044574;28;20181;-76
2022/10/14 11:50:45;;;;;;;8.07;5.37;;;;;;;;;;5043462;28;20784;-76
2022/10/14 11:53:16;;;;;;;8.00;6.10;;;;;;;;;;5038934;28;20205;-76
2022/10/14 11:55:46;;;;;;;10.30;7.17;;;;;;;;;;5048161;28;20197;-76
2022/10/14 11:58:15;;;;;;;12.63;9.07;;;;;;;;;;5034803;28;20190;-76
2022/10/14 12:01:10;;;;;;;12.60;7.30;;;;;;;;;;5038113;28;20189;-77
2022/10/14 12:04:09;;;;;;;8.70;6.43;;;;;;;;;;5044425;28;20209;-75
2022/10/14 12:06:40;;;;;;;9.37;6.20;;;;;;;;;;5000661;28;20204;-75
2022/10/14 12:09:16;;;;;;;11.20;7.57;;;;;;;;;;5040740;28;20189;-75
2022/10/14 12:11:59;;;;;;;12.50;9.03;;;;;;;;;;5043765;28;20260;-75
2022/10/14 12:14:36;;;;;;;12.87;7.13;;;;;;;;;;5044871;28;20231;-74
2022/10/14 12:17:07;;;;;;;7.97;6.38;;;;;;;;;;5042392;28;20408;-76
2022/10/14 12:19:33;;;;;;;7.87;5.43;;;;;;;;;;5045578;28;20811;-77
2022/10/14 12:22:14;;;;;;;11.87;6.90;;;;;;;;;;5044955;28;20617;-76
2022/10/14 12:24:47;;;;;;;7.63;5.77;;;;;;;;;;5042132;28;20218;-78
2022/10/14 12:27:14;;;;;;;19.07;11.90;;;;;;;;;;5047718;28;20174;-75
2022/10/14 12:29:45;;;;;;;26.30;12.03;;;;;;;;;;5042343;28;20185;-77
2022/10/14 12:32:19;;;;;;;25.07;13.63;;;;;;;;;;5040261;28;20247;-77
2022/10/14 12:34:47;;;;;;;11.37;7.80;;;;;;;;;;5041187;28;20236;-77
2022/10/14 12:37:25;;;;;;;10.10;6.57;;;;;;;;;;5038437;28;20573;-77
2022/10/14 12:39:52;;;;;;;9.20;6.30;;;;;;;;;;5051433;28;20219;-77
2022/10/14 12:42:19;;;;;;;7.10;6.10;;;;;;;;;;5050646;28;20209;-78
2022/10/14 12:44:54;;;;;;;6.83;5.67;;;;;;;;;;5046045;28;20210;-77
2022/10/14 12:47:21;;;;;;;6.67;5.97;;;;;;;;;;5044124;28;20919;-77
2022/10/14 12:49:49;;;;;;;9.87;5.27;;;;;;;;;;5041277;28;20755;-77
2022/10/14 12:52:20;;;;;;;6.83;5.43;;;;;;;;;;5048615;28;20204;-76
2022/10/14 12:54:47;;;;;;;6.97;5.10;;;;;;;;;;5026762;28;20732;-75
2022/10/14 12:57:23;;;;;;;6.87;4.87;;;;;;;;;;5044313;28;20182;-74
2022/10/14 12:59:52;;;;;;;6.47;4.83;;;;;;;;;;5040953;28;20189;-74
2022/10/14 13:02:35;;;;;;;7.83;4.97;;;;;;;;;;5042473;28;20197;-75
2022/10/14 13:05:04;;;;;;;8.27;5.37;;;;;;;;;;5043258;28;20255;-74
2022/10/14 13:07:44;;;;;;;11.97;5.60;;;;;;;;;;5041188;28;20191;-76
2022/10/14 13:10:29;;;;;;;5.80;5.20;;;;;;;;;;5041928;28;20174;-74
2022/10/14 13:12:55;;;;;;;6.20;4.80;;;;;;;;;;5044328;28;20202;-74
2022/10/14 13:15:33;;;;;;;6.40;4.80;;;;;;;;;;5045502;28;20265;-75
2022/10/14 13:18:20;;;;;;;7.40;5.23;;;;;;;;;;5062416;28;20201;-75
2022/10/14 13:20:50;;;;;;;7.10;4.70;;;;;;;;;;5045888;28;20186;-74
2022/10/14 13:23:37;;;;;;;6.60;4.73;;;;;;;;;;5046163;28;20206;-74
2022/10/14 13:26:21;;;;;;;6.17;4.23;;;;;;;;;;5034371;28;20900;-75
2022/10/14 13:28:52;;;;;;;8.07;4.43;;;;;;;;;;5043306;28;20209;-74
2022/10/14 13:31:45;;;;;;;7.50;4.27;;;;;;;;;;5044920;28;20220;-75
2022/10/14 13:34:33;;;;;;;5.77;4.20;;;;;;;;;;5034873;28;20241;-80
2022/10/14 13:37:18;;;;;;;6.03;4.47;;;;;;;;;;5014993;28;20194;-80
2022/10/14 13:39:44;;;;;;;4.57;4.10;;;;;;;;;;5040695;28;20183;-77
2022/10/14 13:42:16;;;;;;;7.93;4.17;;;;;;;;;;5036591;28;20696;-87
2022/10/14 13:44:43;;;;;;;5.20;4.03;;;;;;;;;;5041795;28;20206;-76
2022/10/14 13:47:12;;;;;;;7.20;4.57;;;;;;;;;;5034014;28;20261;-75
2022/10/14 13:49:39;;;;;;;7.47;4.80;;;;;;;;;;5044692;28;20642;-76
2022/10/14 13:52:09;;;;;;;6.27;4.50;;;;;;;;;;5041530;28;20681;-77
2022/10/14 13:54:35;;;;;;;7.37;4.80;;;;;;;;;;5045006;28;20658;-78
2022/10/14 13:57:12;;;;;;;7.00;4.70;;;;;;;;;;5042190;28;20190;-78
2022/10/14 13:59:40;;;;;;;6.10;4.77;;;;;;;;;;5041220;28;20204;-79
2022/10/14 14:02:13;;;;;;;6.43;4.33;;;;;;;;;;5038956;28;20893;-78
2022/10/14 14:04:39;;;;;;;7.20;4.67;;;;;;;;;;5016891;28;20221;-78
2022/10/14 14:07:05;;;;;;;4.63;4.00;;;;;;;;;;5039396;28;20182;-78
2022/10/14 14:09:34;;;;;;;5.60;4.40;;;;;;;;;;5031381;28;20182;-78
2022/10/14 14:12:02;;;;;;;6.00;4.33;;;;;;;;;;5040000;28;20179;-78
2022/10/14 14:14:36;;;;;;;6.40;4.47;;;;;;;;;;5038676;28;20182;-80
2022/10/14 14:17:03;;;;;;;8.03;4.47;;;;;;;;;;5051780;28;20208;-77
2022/10/14 14:19:29;;;;;;;5.97;4.40;;;;;;;;;;5051124;28;20207;-78
2022/10/14 14:22:26;;;;;;;4.83;4.20;;;;;;;;;;5049743;28;20205;-78
2022/10/14 14:24:52;;;;;;;5.07;4.60;;;;;;;;;;5032297;28;20603;-78
2022/10/14 14:27:22;;;;;;;7.57;4.67;;;;;;;;;;5047604;28;20186;-77
2022/10/14 14:29:51;;;;;;;5.83;3.93;;;;;;;;;;5043405;28;20380;-78
2022/10/14 14:32:17;;;;;;;5.20;3.57;;;;;;;;;;5049736;28;20661;-79
2022/10/14 14:34:45;;;;;;;6.43;4.73;;;;;;;;;;5039244;28;20183;-80
2022/10/14 14:37:28;;;;;;;5.00;4.40;;;;;;;;;;5045160;28;20256;-78
2022/10/14 14:40:02;;;;;;;7.07;5.87;;;;;;;;;;5038705;28;20181;-75
2022/10/14 14:42:31;;;;;;;6.07;4.30;;;;;;;;;;5043380;28;20210;-74
2022/10/14 14:45:00;;;;;;;7.40;6.50;;;;;;;;;;5047800;28;20224;-76
2022/10/14 14:47:27;;;;;;;6.00;5.40;;;;;;;;;;5045545;28;20192;-75
2022/10/14 14:49:53;;;;;;;5.93;5.37;;;;;;;;;;5043921;28;20174;-73
2022/10/14 14:52:20;;;;;;;5.13;4.60;;;;;;;;;;5041275;28;20326;-72
2022/10/14 14:54:47;;;;;;;5.93;4.53;;;;;;;;;;5044933;28;20174;-75